Long View, North Carolina
Current Conditions -  °F | °C
As of 4:53 PM on Saturday 25 Oct 2014 (Local Time) from KHKY Reporting Station
Clear Clear  
Wind Chill: 73°   Ceiling: Unl
Heat Index: 73°   Visibility: 10mi
Dew Point: 35°   Wind: 5mph
Humidity: 25%   Direction: 270°W
Pressure: 29.95"   Gusts: NA
Location:  35.6584°N, 81.3878°W
Report Text: KHKY 252053Z AUTO 27004KT 10SM CLR 23/02 A2995 RMK AO2 SLP126 T02280017 56014
Loading
Personal Weather Stations






























Interactive Weather Map
Tropical Storm Tracking
New forecast layout! Learn more

10-Day Weather Forecast

Advertisements
Track Severe Weather on mobile